Time;durP1;ratioP1;P1;durP2;ratioP2;P2;SDS_P1;SDS_P2;PMS_P1;PMS_P2;Temp;Humidity;BMP_temperature;BMP_pressure;BME280_temperature;BME280_humidity;BME280_pressure;Samples;Min_cycle;Max_cycle;Signal;HPM_P1;HPM_P2
2022/09/29 00:00:36;;;;;;;3.23;2.97;;;8.30;99.90;;;;;;4990128;28;20243;-64
2022/09/29 00:03:03;;;;;;;4.33;3.53;;;8.30;99.90;;;;;;4993528;28;20990;-63
2022/09/29 00:05:29;;;;;;;4.73;3.77;;;8.30;99.90;;;;;;4993347;28;20443;-64
2022/09/29 00:07:55;;;;;;;3.70;3.30;;;8.20;99.90;;;;;;4989826;28;20513;-63
2022/09/29 00:10:20;;;;;;;4.33;3.20;;;8.20;99.90;;;;;;4998863;28;20467;-64
2022/09/29 00:12:46;;;;;;;8.63;3.60;;;8.20;99.90;;;;;;4992972;28;20185;-63
2022/09/29 00:15:12;;;;;;;6.17;3.83;;;8.20;99.90;;;;;;4992311;28;20188;-63
2022/09/29 00:17:38;;;;;;;4.03;3.40;;;8.20;99.90;;;;;;4989006;28;20208;-63
2022/09/29 00:20:04;;;;;;;6.20;4.30;;;8.20;99.90;;;;;;4997604;28;20508;-64
2022/09/29 00:22:30;;;;;;;4.57;3.70;;;8.20;99.90;;;;;;4991971;28;20465;-63
2022/09/29 00:24:56;;;;;;;4.70;4.10;;;8.20;99.90;;;;;;4989162;28;21009;-63
2022/09/29 00:27:21;;;;;;;8.73;4.20;;;8.20;99.90;;;;;;4977698;28;20185;-64
2022/09/29 00:29:47;;;;;;;5.73;4.67;;;8.20;99.90;;;;;;4991468;28;20283;-63
2022/09/29 00:32:13;;;;;;;5.53;3.73;;;8.20;99.90;;;;;;4990382;28;20173;-64
2022/09/29 00:34:38;;;;;;;6.80;4.20;;;8.20;99.90;;;;;;4990347;28;20540;-64
2022/09/29 00:37:04;;;;;;;5.63;4.33;;;8.20;99.90;;;;;;4992629;28;20444;-64
2022/09/29 00:39:31;;;;;;;5.60;4.33;;;8.20;99.90;;;;;;4992499;28;20197;-64
2022/09/29 00:41:57;;;;;;;5.90;4.33;;;8.20;99.90;;;;;;4996655;28;20460;-65
2022/09/29 00:44:41;;;;;;;4.30;3.77;;;8.20;99.90;;;;;;4986720;28;20470;-64
2022/09/29 00:47:12;;;;;;;4.40;4.00;;;8.20;99.90;;;;;;4989863;28;20881;-64
2022/09/29 00:49:59;;;;;;;6.80;4.20;;;8.20;99.90;;;;;;4989170;28;21229;-64
2022/09/29 00:52:29;;;;;;;7.80;3.60;;;8.20;99.90;;;;;;4983187;28;20425;-64
2022/09/29 00:55:19;;;;;;;5.10;3.80;;;8.20;99.90;;;;;;4991556;28;20832;-64
2022/09/29 00:58:09;;;;;;;5.57;4.37;;;8.20;99.90;;;;;;4985236;28;20796;-64
2022/09/29 01:00:36;;;;;;;5.90;4.47;;;8.20;99.90;;;;;;4990040;28;20444;-64
2022/09/29 01:03:11;;;;;;;8.77;4.67;;;8.20;99.90;;;;;;4988522;28;21007;-64
2022/09/29 01:05:44;;;;;;;5.67;4.50;;;8.20;99.90;;;;;;4988846;28;20519;-63
2022/09/29 01:08:27;;;;;;;6.37;4.77;;;8.20;99.90;;;;;;4993053;28;20502;-64
2022/09/29 01:10:55;;;;;;;6.37;4.50;;;8.20;99.90;;;;;;4985839;28;20559;-64
2022/09/29 01:13:21;;;;;;;6.20;4.67;;;8.20;99.90;;;;;;4990761;28;20942;-64
2022/09/29 01:15:47;;;;;;;9.77;5.10;;;8.20;99.90;;;;;;4994398;28;20475;-64
2022/09/29 01:18:12;;;;;;;8.50;4.60;;;8.20;99.90;;;;;;4989154;28;20247;-64
2022/09/29 01:21:00;;;;;;;4.93;4.10;;;8.20;99.90;;;;;;4996330;28;20177;-64
2022/09/29 01:23:31;;;;;;;7.53;4.73;;;8.20;99.90;;;;;;4988849;28;20173;-63
2022/09/29 01:26:20;;;;;;;7.30;5.00;;;8.20;99.90;;;;;;4985034;28;20462;-63
2022/09/29 01:28:57;;;;;;;6.70;4.97;;;8.20;99.90;;;;;;4990337;28;20474;-64
2022/09/29 01:31:28;;;;;;;6.93;4.70;;;8.20;99.90;;;;;;4992828;28;20467;-64
2022/09/29 01:34:04;;;;;;;6.10;4.40;;;8.10;99.90;;;;;;4991289;28;20499;-64
2022/09/29 01:36:30;;;;;;;5.13;4.60;;;8.20;99.90;;;;;;4986379;28;20432;-63
2022/09/29 01:39:04;;;;;;;10.20;4.60;;;8.20;99.90;;;;;;4993943;28;20455;-64
2022/09/29 01:41:41;;;;;;;5.40;4.43;;;8.10;99.90;;;;;;4996146;28;20263;-63
2022/09/29 01:44:32;;;;;;;5.87;4.97;;;8.20;99.90;;;;;;4989208;28;20559;-64
2022/09/29 01:47:22;;;;;;;6.23;4.90;;;8.20;99.90;;;;;;4992019;28;20506;-62
2022/09/29 01:49:54;;;;;;;5.97;4.53;;;8.20;99.90;;;;;;4972132;28;20472;-63
2022/09/29 01:52:24;;;;;;;8.70;5.13;;;8.20;99.90;;;;;;4972913;28;20437;-63
2022/09/29 01:55:04;;;;;;;7.00;5.20;;;8.20;99.90;;;;;;4987744;28;20431;-63
2022/09/29 01:57:53;;;;;;;8.23;5.17;;;8.20;99.90;;;;;;4980202;28;20510;-63
2022/09/29 02:00:21;;;;;;;6.10;5.20;;;8.20;99.90;;;;;;4986934;28;20903;-63
2022/09/29 02:03:08;;;;;;;6.07;4.60;;;8.20;99.90;;;;;;4990181;28;20428;-64
2022/09/29 02:05:49;;;;;;;6.70;4.77;;;8.20;99.90;;;;;;4988824;28;21004;-64
2022/09/29 02:08:36;;;;;;;7.17;4.50;;;8.20;99.90;;;;;;4989716;28;20483;-63
2022/09/29 02:11:07;;;;;;;6.80;4.60;;;8.20;99.90;;;;;;4999576;28;20920;-62
2022/09/29 02:13:54;;;;;;;6.70;5.17;;;8.20;99.90;;;;;;4985787;28;20437;-63
2022/09/29 02:16:25;;;;;;;9.47;5.10;;;8.20;99.90;;;;;;4989630;28;20471;-63
2022/09/29 02:19:12;;;;;;;13.50;5.47;;;8.20;99.90;;;;;;4984817;28;20512;-63
2022/09/29 02:21:38;;;;;;;11.27;5.43;;;8.20;99.90;;;;;;4987269;28;20451;-63
2022/09/29 02:24:03;;;;;;;9.30;5.80;;;8.20;99.90;;;;;;4981545;28;20882;-63
2022/09/29 02:26:36;;;;;;;9.27;5.40;;;8.20;99.90;;;;;;4987049;28;20795;-63
2022/09/29 02:29:03;;;;;;;7.20;4.97;;;8.20;99.90;;;;;;4992405;28;20230;-63
2022/09/29 02:31:30;;;;;;;13.50;5.73;;;8.20;99.90;;;;;;5005861;28;20501;-63
2022/09/29 02:33:56;;;;;;;7.57;5.40;;;8.20;99.90;;;;;;4988115;28;20522;-63
2022/09/29 02:36:30;;;;;;;5.50;4.60;;;8.20;99.90;;;;;;4989626;28;20428;-63
2022/09/29 02:39:14;;;;;;;6.37;4.37;;;8.20;99.90;;;;;;4991374;28;20201;-63
2022/09/29 02:42:03;;;;;;;10.07;4.07;;;8.20;99.90;;;;;;4981730;28;20806;-64
2022/09/29 02:44:50;;;;;;;6.73;4.20;;;8.20;99.90;;;;;;4991394;28;20404;-63
2022/09/29 02:47:37;;;;;;;5.90;4.40;;;8.20;99.90;;;;;;4992684;28;20448;-63
2022/09/29 02:50:21;;;;;;;6.97;6.10;;;8.20;99.90;;;;;;4971044;28;20520;-63
2022/09/29 02:53:02;;;;;;;8.17;5.70;;;8.20;99.90;;;;;;4983190;28;20575;-63
2022/09/29 02:55:32;;;;;;;7.50;5.63;;;8.20;99.90;;;;;;5002085;28;20435;-63
2022/09/29 02:58:13;;;;;;;7.80;5.30;;;8.10;99.90;;;;;;4996667;28;20590;-63
2022/09/29 03:00:39;;;;;;;7.93;5.13;;;8.10;99.90;;;;;;4991288;28;20420;-63
2022/09/29 03:03:05;;;;;;;6.77;5.23;;;8.10;99.90;;;;;;4990183;28;20507;-63
2022/09/29 03:05:30;;;;;;;6.03;4.67;;;8.10;99.90;;;;;;4982484;28;20444;-64
2022/09/29 03:07:56;;;;;;;5.07;3.70;;;8.10;99.90;;;;;;4986223;28;20236;-63
2022/09/29 03:10:22;;;;;;;7.57;4.03;;;8.10;99.90;;;;;;4995323;28;20780;-63
2022/09/29 03:12:47;;;;;;;6.80;4.20;;;8.10;99.90;;;;;;4987153;28;20173;-63
2022/09/29 03:15:13;;;;;;;8.20;4.67;;;8.10;99.90;;;;;;4984563;28;20924;-63
2022/09/29 03:17:39;;;;;;;5.17;3.40;;;8.10;99.90;;;;;;4989288;28;20243;-63
2022/09/29 03:20:06;;;;;;;5.20;3.03;;;8.10;99.90;;;;;;4975400;28;20181;-63
2022/09/29 03:22:31;;;;;;;4.23;3.17;;;8.00;99.90;;;;;;4984100;28;20953;-63
2022/09/29 03:24:57;;;;;;;7.47;4.43;;;8.00;99.90;;;;;;4994549;28;21043;-63
2022/09/29 03:27:22;;;;;;;9.33;4.90;;;8.00;99.90;;;;;;4991669;28;20173;-63
2022/09/29 03:29:49;;;;;;;8.63;4.40;;;7.90;99.90;;;;;;4993475;28;20726;-63
2022/09/29 03:32:16;;;;;;;6.00;3.80;;;8.00;99.90;;;;;;4992342;28;20168;-63
2022/09/29 03:34:41;;;;;;;6.77;3.73;;;8.00;99.90;;;;;;4994116;28;20420;-63
2022/09/29 03:37:07;;;;;;;4.60;3.63;;;8.00;99.90;;;;;;4989263;28;20435;-64
2022/09/29 03:39:32;;;;;;;8.10;4.20;;;7.90;99.90;;;;;;4991131;28;20220;-63
2022/09/29 03:41:59;;;;;;;7.10;4.07;;;7.90;99.90;;;;;;4989834;28;20189;-63
2022/09/29 03:44:24;;;;;;;4.90;4.17;;;7.90;99.90;;;;;;4986398;28;20209;-63
2022/09/29 03:46:50;;;;;;;4.67;3.60;;;7.90;99.90;;;;;;4977343;28;20486;-63
2022/09/29 03:49:16;;;;;;;6.23;4.53;;;7.90;99.90;;;;;;4991828;28;20209;-63
2022/09/29 03:51:43;;;;;;;9.80;5.70;;;7.90;99.90;;;;;;4988291;28;20705;-63
2022/09/29 03:54:09;;;;;;;6.67;4.63;;;7.90;99.90;;;;;;4994104;28;20409;-63
2022/09/29 03:56:36;;;;;;;6.20;4.40;;;7.90;99.90;;;;;;4986981;28;20820;-63
2022/09/29 03:59:04;;;;;;;6.00;4.03;;;7.90;99.90;;;;;;4977139;28;20456;-63
2022/09/29 04:01:30;;;;;;;6.37;3.43;;;8.00;99.90;;;;;;4986292;28;20428;-63
2022/09/29 04:03:57;;;;;;;3.90;3.50;;;8.00;99.90;;;;;;4994831;28;20435;-62
2022/09/29 04:06:22;;;;;;;7.20;3.13;;;7.90;99.90;;;;;;4988928;28;20435;-64
2022/09/29 04:08:48;;;;;;;4.60;3.30;;;7.90;99.90;;;;;;4990957;28;20522;-64
2022/09/29 04:11:14;;;;;;;6.30;3.50;;;7.90;99.90;;;;;;4990044;28;20230;-61
2022/09/29 04:13:39;;;;;;;5.03;3.30;;;7.90;99.90;;;;;;4989915;28;20256;-62
2022/09/29 04:16:05;;;;;;;3.87;3.33;;;7.90;99.90;;;;;;4992999;28;20174;-63
2022/09/29 04:18:31;;;;;;;3.87;3.50;;;8.00;99.90;;;;;;4984185;28;20206;-63
2022/09/29 04:21:07;;;;;;;4.83;3.73;;;7.90;99.90;;;;;;4987647;28;20432;-63
2022/09/29 04:23:33;;;;;;;6.20;4.27;;;7.90;99.90;;;;;;4992312;28;20699;-63
2022/09/29 04:26:01;;;;;;;7.83;5.30;;;8.00;99.90;;;;;;4983402;28;20456;-63
2022/09/29 04:28:27;;;;;;;7.53;4.80;;;7.90;99.90;;;;;;4988158;28;21007;-63
2022/09/29 04:30:52;;;;;;;9.03;5.47;;;8.00;99.90;;;;;;4983938;28;20971;-59
2022/09/29 04:33:18;;;;;;;6.70;4.87;;;8.00;99.90;;;;;;4974705;28;21171;-63
2022/09/29 04:35:43;;;;;;;5.87;4.53;;;8.00;99.90;;;;;;4986730;28;20188;-63
2022/09/29 04:38:09;;;;;;;9.30;5.00;;;8.00;99.90;;;;;;4986586;28;20586;-63
2022/09/29 04:40:35;;;;;;;6.73;4.77;;;8.00;99.90;;;;;;4984071;28;20181;-60
2022/09/29 04:43:02;;;;;;;8.60;4.60;;;8.00;99.90;;;;;;4984828;28;20580;-63
2022/09/29 04:45:28;;;;;;;7.50;5.03;;;8.00;99.90;;;;;;4984658;28;20436;-63
2022/09/29 04:47:54;;;;;;;6.30;4.70;;;8.00;99.90;;;;;;4984488;28;20483;-63
2022/09/29 04:50:19;;;;;;;10.23;5.13;;;8.00;99.90;;;;;;4981111;28;20204;-63
2022/09/29 04:52:45;;;;;;;8.70;5.23;;;8.00;99.90;;;;;;4992125;28;20201;-63
2022/09/29 04:55:11;;;;;;;8.77;6.60;;;7.90;99.90;;;;;;4987073;28;20177;-63
2022/09/29 04:57:38;;;;;;;6.80;4.90;;;8.00;99.90;;;;;;4983395;28;20177;-63
2022/09/29 05:00:05;;;;;;;6.50;5.33;;;7.90;99.90;;;;;;4983878;28;22637;-59
2022/09/29 05:02:31;;;;;;;8.80;5.47;;;7.90;99.90;;;;;;4986984;28;20524;-63
2022/09/29 05:04:57;;;;;;;8.83;5.10;;;7.90;99.90;;;;;;4984832;28;20527;-63
2022/09/29 05:07:22;;;;;;;9.87;6.07;;;7.90;99.90;;;;;;4984905;28;20852;-63
2022/09/29 05:09:48;;;;;;;10.73;5.60;;;7.90;99.90;;;;;;4974156;28;20202;-63
2022/09/29 05:12:14;;;;;;;12.50;5.97;;;7.90;99.90;;;;;;5011059;28;20176;-63
2022/09/29 05:14:39;;;;;;;9.50;6.73;;;7.90;99.90;;;;;;4997027;28;20181;-63
2022/09/29 05:17:05;;;;;;;9.73;6.30;;;7.90;99.90;;;;;;4974584;28;20562;-63
2022/09/29 05:19:31;;;;;;;10.43;6.73;;;7.90;99.90;;;;;;4956196;28;20559;-63
2022/09/29 05:21:57;;;;;;;12.83;7.73;;;7.90;99.90;;;;;;4972555;28;20189;-64
2022/09/29 05:24:23;;;;;;;10.40;6.77;;;7.90;99.90;;;;;;4981916;28;20201;-63
2022/09/29 05:26:49;;;;;;;13.70;8.87;;;7.90;99.90;;;;;;5002871;28;21012;-63
2022/09/29 05:29:14;;;;;;;13.33;8.20;;;7.90;99.90;;;;;;4998463;28;20204;-63
2022/09/29 05:31:40;;;;;;;11.10;7.27;;;8.00;99.90;;;;;;5002951;28;20181;-63
2022/09/29 05:34:06;;;;;;;14.77;7.17;;;7.90;99.90;;;;;;5055412;22;20337;-62
2022/09/29 05:36:31;;;;;;;22.70;7.50;;;7.90;99.90;;;;;;5050175;28;20167;-63
2022/09/29 05:38:57;;;;;;;14.70;8.20;;;8.00;99.90;;;;;;5050438;28;20175;-62
2022/09/29 05:41:23;;;;;;;11.43;7.00;;;8.00;99.90;;;;;;5044499;28;20182;-59
2022/09/29 05:43:52;;;;;;;11.43;8.03;;;8.00;99.90;;;;;;5036466;28;20418;-61
2022/09/29 05:46:18;;;;;;;10.47;7.17;;;8.00;99.90;;;;;;5047264;28;20245;-62
2022/09/29 05:48:48;;;;;;;16.60;9.20;;;8.00;99.90;;;;;;5065307;28;20807;-61
2022/09/29 05:51:17;;;;;;;17.17;9.90;;;8.00;99.90;;;;;;5022819;28;20431;-63
2022/09/29 05:53:43;;;;;;;15.70;8.70;;;8.00;99.90;;;;;;5011160;28;20463;-61
2022/09/29 05:56:20;;;;;;;17.27;8.00;;;8.00;99.90;;;;;;5027098;28;20434;-61
2022/09/29 05:58:46;;;;;;;13.83;8.60;;;8.10;99.90;;;;;;5021801;28;20184;-59
2022/09/29 06:01:14;;;;;;;15.57;9.17;;;8.10;99.90;;;;;;5024332;28;20475;-61
2022/09/29 06:03:40;;;;;;;13.80;8.87;;;8.00;99.90;;;;;;5029179;28;20196;-63
2022/09/29 06:06:08;;;;;;;15.43;9.43;;;8.00;99.90;;;;;;5029435;28;20414;-61
2022/09/29 06:08:34;;;;;;;14.70;9.10;;;8.10;99.90;;;;;;5018686;28;20447;-63
2022/09/29 06:11:10;;;;;;;13.57;8.60;;;8.10;99.90;;;;;;5020073;28;20784;-61
2022/09/29 06:13:40;;;;;;;14.87;8.03;;;8.10;99.90;;;;;;5045918;28;20433;-64
2022/09/29 06:16:07;;;;;;;12.83;8.00;;;8.10;99.90;;;;;;5030431;28;20565;-60
2022/09/29 06:18:34;;;;;;;14.50;8.60;;;8.10;99.90;;;;;;5009495;28;20929;-61
2022/09/29 06:21:07;;;;;;;12.20;8.07;;;8.10;99.90;;;;;;5024042;28;20434;-63
2022/09/29 06:23:33;;;;;;;15.27;8.50;;;8.10;99.90;;;;;;5029288;28;20498;-60
2022/09/29 06:26:01;;;;;;;15.10;9.20;;;8.10;99.90;;;;;;5029461;28;20426;-62
2022/09/29 06:28:31;;;;;;;14.30;8.43;;;8.20;99.90;;;;;;5025647;28;20437;-62
2022/09/29 06:31:02;;;;;;;16.67;9.43;;;8.20;99.90;;;;;;5009533;28;20584;-65
2022/09/29 06:33:29;;;;;;;13.13;8.63;;;8.20;99.90;;;;;;5019287;28;21004;-62
2022/09/29 06:38:40;;;;;;;11.13;7.73;;;8.20;99.90;;;;;;5025020;28;20434;-61
2022/09/29 06:41:07;;;;;;;15.80;7.63;;;8.30;99.90;;;;;;5020707;28;20501;-61
2022/09/29 06:43:33;;;;;;;13.70;8.13;;;8.30;99.90;;;;;;5027483;28;20445;-61
2022/09/29 06:45:58;;;;;;;13.90;8.00;;;8.30;99.90;;;;;;5029366;28;20402;-62
2022/09/29 06:48:24;;;;;;;13.07;7.60;;;8.30;99.90;;;;;;5028669;28;20434;-63
2022/09/29 06:50:50;;;;;;;15.43;7.97;;;8.30;99.90;;;;;;5027479;28;20263;-61
2022/09/29 06:53:16;;;;;;;11.80;6.97;;;8.40;99.90;;;;;;5014379;28;20450;-60
2022/09/29 06:55:41;;;;;;;12.10;7.03;;;8.40;99.90;;;;;;5026337;28;20665;-59
2022/09/29 06:58:08;;;;;;;11.10;6.20;;;8.40;99.90;;;;;;5028363;28;20349;-61
2022/09/29 07:00:34;;;;;;;14.10;7.20;;;8.40;99.90;;;;;;5028637;28;20175;-63
2022/09/29 07:03:00;;;;;;;9.60;7.40;;;8.40;99.90;;;;;;5026254;28;20438;-62
2022/09/29 07:05:25;;;;;;;11.23;7.87;;;8.40;99.90;;;;;;5025846;28;20500;-63
2022/09/29 07:07:52;;;;;;;12.03;7.60;;;8.40;99.90;;;;;;5022579;28;20604;-62
2022/09/29 07:10:17;;;;;;;15.93;8.20;;;8.40;99.90;;;;;;5024933;28;20207;-62
2022/09/29 07:12:45;;;;;;;14.33;9.20;;;8.40;99.90;;;;;;5022993;28;20457;-63
2022/09/29 07:15:12;;;;;;;15.30;8.30;;;8.50;99.90;;;;;;5021816;28;20180;-62
2022/09/29 07:17:37;;;;;;;16.00;8.90;;;8.50;99.90;;;;;;5018382;28;20497;-63
2022/09/29 07:20:04;;;;;;;11.40;8.10;;;8.50;99.90;;;;;;5027122;28;20430;-62
2022/09/29 07:22:29;;;;;;;15.03;8.97;;;8.60;99.90;;;;;;5006543;28;20641;-62
2022/09/29 07:24:55;;;;;;;16.57;8.90;;;8.60;99.90;;;;;;5018863;28;20450;-59
2022/09/29 07:27:23;;;;;;;15.50;9.97;;;8.60;99.90;;;;;;5019572;28;20179;-62
2022/09/29 07:29:52;;;;;;;14.33;8.80;;;8.70;99.90;;;;;;5010095;28;20218;-62
2022/09/29 07:32:18;;;;;;;17.23;10.63;;;8.70;99.90;;;;;;5017946;28;20445;-62
2022/09/29 07:34:44;;;;;;;22.77;10.33;;;8.70;99.90;;;;;;5019293;28;20446;-63
2022/09/29 07:37:10;;;;;;;16.60;10.20;;;8.70;99.90;;;;;;5019228;28;20210;-62
2022/09/29 07:39:36;;;;;;;16.67;10.20;;;8.70;99.90;;;;;;5027848;28;20208;-63
2022/09/29 07:42:02;;;;;;;16.37;10.27;;;8.70;99.90;;;;;;5038061;28;20469;-63
2022/09/29 07:44:30;;;;;;;17.37;10.47;;;8.70;99.90;;;;;;5026323;28;20785;-63
2022/09/29 07:46:56;;;;;;;18.00;10.87;;;8.70;99.90;;;;;;5042397;28;20435;-63
2022/09/29 07:49:22;;;;;;;20.33;11.00;;;8.80;99.90;;;;;;5027993;28;20453;-62
2022/09/29 07:51:48;;;;;;;25.07;12.60;;;8.90;99.90;;;;;;5024215;28;20635;-63
2022/09/29 07:54:14;;;;;;;24.37;12.10;;;9.00;99.90;;;;;;5025891;28;20468;-63
2022/09/29 07:56:39;;;;;;;26.00;13.13;;;9.00;99.90;;;;;;5018896;28;20243;-63
2022/09/29 07:59:05;;;;;;;24.60;12.20;;;9.00;99.90;;;;;;5026997;28;20183;-63
2022/09/29 08:01:32;;;;;;;18.70;10.93;;;9.00;99.90;;;;;;5025750;28;20184;-62
2022/09/29 08:03:58;;;;;;;20.13;9.00;;;9.00;99.90;;;;;;5017040;28;20204;-63
2022/09/29 08:06:25;;;;;;;13.30;8.70;;;9.00;99.90;;;;;;5008756;28;20515;-63
2022/09/29 08:08:51;;;;;;;11.30;7.27;;;9.00;99.90;;;;;;5034488;28;20556;-63
2022/09/29 08:11:19;;;;;;;12.70;7.23;;;9.00;99.90;;;;;;5039695;28;20522;-67
2022/09/29 08:13:46;;;;;;;10.47;6.97;;;9.10;99.90;;;;;;5028895;28;20254;-64
2022/09/29 08:16:13;;;;;;;10.40;7.87;;;9.00;99.90;;;;;;5027568;28;20440;-64
2022/09/29 08:18:40;;;;;;;13.90;8.30;;;9.00;99.90;;;;;;5027140;28;20960;-62
2022/09/29 08:21:06;;;;;;;12.30;7.97;;;9.10;99.90;;;;;;5026358;28;20434;-63
2022/09/29 08:23:39;;;;;;;16.27;9.17;;;9.10;99.90;;;;;;5012120;28;20445;-64
2022/09/29 08:26:17;;;;;;;17.80;9.17;;;9.10;99.90;;;;;;5021180;28;20423;-64
2022/09/29 08:28:43;;;;;;;17.23;10.10;;;9.20;99.90;;;;;;5025212;28;20434;-64
2022/09/29 08:31:19;;;;;;;15.53;8.80;;;9.20;99.90;;;;;;5011171;28;20426;-64
2022/09/29 08:33:45;;;;;;;15.13;8.53;;;9.30;99.90;;;;;;5023509;28;20454;-63
2022/09/29 08:36:14;;;;;;;16.10;9.47;;;9.30;99.90;;;;;;5030883;28;20433;-64
2022/09/29 08:38:44;;;;;;;18.00;10.50;;;9.30;99.90;;;;;;5025200;28;20522;-63
2022/09/29 08:41:28;;;;;;;15.63;9.40;;;9.30;99.90;;;;;;5026978;28;20427;-62
2022/09/29 08:43:59;;;;;;;17.13;9.23;;;9.40;99.90;;;;;;5042426;28;20450;-62
2022/09/29 08:46:34;;;;;;;13.80;8.73;;;9.40;99.90;;;;;;5028494;28;20534;-62
2022/09/29 08:49:05;;;;;;;16.00;8.53;;;9.40;99.90;;;;;;5027088;28;20591;-61
2022/09/29 08:51:40;;;;;;;18.47;8.63;;;9.40;99.90;;;;;;5027604;28;20500;-61
2022/09/29 08:54:16;;;;;;;17.07;8.50;;;9.50;99.90;;;;;;5031263;28;20440;-62
2022/09/29 08:56:42;;;;;;;11.70;7.40;;;9.50;99.90;;;;;;5026137;28;20492;-61
2022/09/29 08:59:10;;;;;;;14.43;8.10;;;9.50;99.90;;;;;;5028546;28;20486;-64
2022/09/29 09:02:07;;;;;;;11.23;7.13;;;9.50;99.90;;;;;;5009309;28;20638;-64
2022/09/29 09:04:45;;;;;;;12.17;8.10;;;9.50;99.90;;;;;;5017644;28;20451;-64
2022/09/29 09:07:26;;;;;;;11.67;8.00;;;9.60;99.90;;;;;;5032806;28;20409;-64
2022/09/29 09:10:29;;;;;;;15.67;8.03;;;9.60;99.90;;;;;;5039494;28;20481;-63
2022/09/29 09:13:16;;;;;;;13.13;7.10;;;9.60;99.90;;;;;;5031715;28;20457;-64
2022/09/29 09:15:47;;;;;;;13.43;7.70;;;9.60;99.90;;;;;;5026443;28;20488;-61
2022/09/29 09:18:41;;;;;;;13.77;8.07;;;9.60;99.90;;;;;;5028930;28;20477;-61
2022/09/29 09:21:12;;;;;;;13.23;8.03;;;9.60;99.90;;;;;;5035455;28;20419;-63
2022/09/29 09:23:56;;;;;;;15.73;8.00;;;9.70;99.90;;;;;;5023864;28;20971;-61
2022/09/29 09:26:39;;;;;;;11.23;6.40;;;9.70;99.90;;;;;;5029991;28;20440;-62
2022/09/29 09:29:19;;;;;;;11.70;6.83;;;9.70;99.90;;;;;;5029209;28;20458;-59
2022/09/29 09:31:56;;;;;;;13.97;6.90;;;9.70;99.90;;;;;;5023546;28;20948;-60
2022/09/29 09:34:34;;;;;;;11.33;7.20;;;9.80;99.90;;;;;;5000562;28;20477;-63
2022/09/29 09:37:09;;;;;;;10.13;6.60;;;9.80;99.90;;;;;;5036285;28;20433;-62
2022/09/29 09:39:46;;;;;;;9.70;5.57;;;9.80;99.90;;;;;;5025833;28;20450;-61
2022/09/29 09:42:22;;;;;;;9.67;6.13;;;9.80;99.90;;;;;;5029277;28;20484;-61
2022/09/29 09:45:16;;;;;;;12.30;6.67;;;9.80;99.90;;;;;;5031410;28;20421;-62
2022/09/29 09:47:48;;;;;;;7.53;5.50;;;9.80;99.90;;;;;;5015066;28;20572;-62
2022/09/29 09:50:16;;;;;;;9.23;4.20;;;9.80;99.90;;;;;;5031381;28;20549;-61
2022/09/29 09:52:52;;;;;;;6.83;4.43;;;9.80;99.90;;;;;;5028507;28;20842;-61
2022/09/29 09:55:23;;;;;;;4.60;3.67;;;9.80;99.90;;;;;;5020919;28;20461;-61
2022/09/29 09:58:10;;;;;;;9.20;4.20;;;9.80;99.90;;;;;;5025565;28;20493;-60
2022/09/29 10:00:42;;;;;;;7.47;3.80;;;9.90;99.90;;;;;;5028404;28;20433;-60
2022/09/29 10:03:08;;;;;;;7.10;4.23;;;9.90;99.90;;;;;;5027836;28;20446;-60
2022/09/29 10:05:37;;;;;;;7.43;4.40;;;10.00;99.90;;;;;;5031602;28;20429;-61
2022/09/29 10:08:06;;;;;;;6.73;3.27;;;10.00;99.90;;;;;;5035061;28;20456;-61
2022/09/29 10:10:32;;;;;;;11.00;4.30;;;10.00;99.90;;;;;;5029617;28;20933;-60
2022/09/29 10:13:07;;;;;;;5.10;3.73;;;10.10;99.90;;;;;;5021119;28;20476;-58
2022/09/29 10:15:46;;;;;;;6.30;3.77;;;10.20;99.90;;;;;;5030610;28;20426;-61
2022/09/29 10:18:24;;;;;;;4.40;3.90;;;10.20;99.90;;;;;;5033406;28;20414;-60
2022/09/29 10:20:50;;;;;;;7.07;3.90;;;10.30;99.90;;;;;;5025388;28;20949;-61
2022/09/29 10:23:23;;;;;;;6.37;3.60;;;10.30;99.90;;;;;;5018941;28;20450;-60
2022/09/29 10:26:06;;;;;;;4.40;2.87;;;10.30;99.90;;;;;;5004336;28;20187;-58
2022/09/29 10:28:43;;;;;;;5.70;3.70;;;10.40;99.90;;;;;;5025516;28;20803;-62
2022/09/29 10:31:23;;;;;;;5.53;2.93;;;10.50;99.90;;;;;;5018897;28;20781;-64
2022/09/29 10:33:59;;;;;;;4.20;3.07;;;10.70;99.90;;;;;;5016346;28;20465;-61
2022/09/29 10:36:32;;;;;;;4.60;3.20;;;10.70;99.90;;;;;;5008612;28;21389;-61
2022/09/29 10:38:58;;;;;;;4.73;2.90;;;10.80;99.90;;;;;;5020186;28;20434;-61
2022/09/29 10:41:24;;;;;;;3.40;2.50;;;10.90;99.90;;;;;;5019367;28;20512;-60
2022/09/29 10:43:51;;;;;;;3.90;3.00;;;11.00;99.90;;;;;;5020954;28;20462;-61
2022/09/29 10:46:35;;;;;;;5.60;3.20;;;11.00;99.90;;;;;;5022390;28;20180;-64
2022/09/29 10:49:09;;;;;;;2.80;2.50;;;11.00;99.90;;;;;;5017923;28;20450;-61
2022/09/29 10:51:35;;;;;;;3.23;2.30;;;11.00;99.90;;;;;;5022050;28;20905;-60
2022/09/29 10:54:10;;;;;;;3.40;3.10;;;11.00;99.90;;;;;;5022831;28;20462;-60
2022/09/29 10:56:36;;;;;;;3.93;2.97;;;11.00;99.90;;;;;;5010683;28;20553;-59
2022/09/29 10:59:03;;;;;;;6.83;3.00;;;11.00;99.90;;;;;;5027603;28;20910;-61
2022/09/29 11:01:31;;;;;;;4.07;3.10;;;11.00;99.90;;;;;;5025898;28;20959;-60
2022/09/29 11:04:03;;;;;;;4.67;2.70;;;11.00;99.90;;;;;;5025377;28;20519;-60
2022/09/29 11:06:37;;;;;;;3.23;2.67;;;10.90;99.90;;;;;;5023577;28;20473;-60
2022/09/29 11:09:04;;;;;;;6.57;2.50;;;10.90;99.90;;;;;;5026872;28;20913;-63
2022/09/29 11:11:39;;;;;;;3.53;2.63;;;10.80;99.90;;;;;;5037941;28;20439;-60
2022/09/29 11:14:05;;;;;;;2.77;2.30;;;10.70;99.90;;;;;;5038570;28;20473;-63
2022/09/29 11:16:33;;;;;;;3.77;3.07;;;10.70;99.90;;;;;;5022578;28;21042;-61
2022/09/29 11:19:14;;;;;;;4.20;2.17;;;10.70;99.90;;;;;;5023735;28;20477;-63
2022/09/29 11:22:10;;;;;;;3.70;2.60;;;10.70;99.90;;;;;;5024773;28;20549;-59
2022/09/29 11:25:09;;;;;;;4.10;2.67;;;10.70;99.90;;;;;;5018521;28;20458;-60
2022/09/29 11:27:43;;;;;;;5.47;2.10;;;10.70;99.90;;;;;;5026685;28;20460;-59
2022/09/29 11:30:16;;;;;;;2.90;2.43;;;10.80;99.90;;;;;;5023875;28;20465;-59
2022/09/29 11:32:44;;;;;;;3.00;2.37;;;10.90;99.90;;;;;;5035733;22;20457;-65
2022/09/29 11:35:28;;;;;;;2.77;2.50;;;10.90;99.90;;;;;;5031037;28;20940;-65
2022/09/29 11:38:31;;;;;;;2.40;2.20;;;11.10;99.90;;;;;;5025116;28;21299;-67
2022/09/29 11:41:07;;;;;;;2.83;2.30;;;11.20;99.90;;;;;;5027879;28;20431;-65
2022/09/29 11:43:54;;;;;;;2.33;2.10;;;11.40;99.90;;;;;;5025339;28;20460;-66
2022/09/29 11:46:44;;;;;;;2.60;2.07;;;11.60;99.90;;;;;;5022409;28;20793;-64
2022/09/29 11:49:29;;;;;;;3.07;2.33;;;11.70;99.90;;;;;;5025647;28;20565;-67
2022/09/29 11:52:16;;;;;;;2.20;2.00;;;11.80;99.90;;;;;;5030578;28;20429;-66
2022/09/29 11:55:00;;;;;;;2.20;2.00;;;11.80;99.90;;;;;;5010289;28;20499;-67
2022/09/29 11:57:54;;;;;;;1.83;1.73;;;11.80;99.90;;;;;;5027170;28;21014;-63
2022/09/29 12:00:32;;;;;;;4.30;2.60;;;11.80;99.90;;;;;;5024902;28;20437;-65
2022/09/29 12:03:19;;;;;;;2.93;2.30;;;11.80;99.90;;;;;;4999428;28;20443;-64
2022/09/29 12:05:54;;;;;;;2.80;2.10;;;11.90;99.90;;;;;;5024818;28;20431;-64
2022/09/29 12:09:10;;;;;;;2.73;1.90;;;11.90;99.90;;;;;;4999323;28;20454;-64
2022/09/29 12:12:14;;;;;;;3.90;1.80;;;11.80;99.90;;;;;;5004088;28;20447;-64
2022/09/29 12:14:52;;;;;;;3.33;2.00;;;11.80;99.90;;;;;;4916200;29;20462;-64
2022/09/29 12:17:19;;;;;;;2.10;1.70;;;11.70;99.90;;;;;;4912836;29;20575;-63
2022/09/29 12:19:50;;;;;;;5.03;2.10;;;11.70;99.90;;;;;;4972700;28;20430;-64
2022/09/29 12:22:18;;;;;;;5.53;2.17;;;11.70;99.90;;;;;;5032859;28;20430;-65
2022/09/29 12:24:52;;;;;;;2.10;1.90;;;11.60;99.90;;;;;;5033912;28;20450;-64
2022/09/29 12:27:38;;;;;;;4.13;2.20;;;11.50;99.90;;;;;;5022315;28;20880;-64
2022/09/29 12:30:22;;;;;;;6.20;2.63;;;11.40;99.90;;;;;;5030522;28;20454;-64
2022/09/29 12:33:15;;;;;;;3.03;2.30;;;11.30;99.90;;;;;;5031091;28;20478;-65
2022/09/29 12:39:12;;;;;;;3.63;2.50;;;11.20;99.90;;;;;;5031063;28;21001;-64
2022/09/29 12:41:43;;;;;;;2.97;1.97;;;11.20;99.90;;;;;;5028665;28;20811;-64
2022/09/29 12:44:19;;;;;;;12.90;4.80;;;11.20;99.90;;;;;;5028468;28;20445;-64
2022/09/29 12:46:55;;;;;;;3.40;2.40;;;11.20;99.90;;;;;;5020769;28;20419;-64
2022/09/29 12:49:32;;;;;;;2.90;2.40;;;11.30;99.90;;;;;;5028780;28;20503;-64
2022/09/29 12:51:59;;;;;;;2.67;2.17;;;11.30;99.90;;;;;;5021060;28;20490;-64
2022/09/29 12:54:28;;;;;;;3.43;2.23;;;11.30;99.90;;;;;;5028839;28;20915;-64
2022/09/29 12:56:57;;;;;;;5.30;2.03;;;11.30;99.90;;;;;;5029084;28;20411;-64
2022/09/29 12:59:43;;;;;;;2.67;2.17;;;11.40;99.90;;;;;;5028500;28;20426;-65
2022/09/29 13:02:21;;;;;;;4.97;2.40;;;11.40;99.90;;;;;;5027698;28;20924;-64
2022/09/29 13:05:15;;;;;;;2.53;2.10;;;11.50;99.90;;;;;;5026183;28;20446;-64
2022/09/29 13:07:53;;;;;;;2.00;1.80;;;11.60;99.90;;;;;;5030240;28;20430;-64
2022/09/29 13:10:51;;;;;;;2.43;2.10;;;11.80;99.90;;;;;;5031526;28;20454;-64
2022/09/29 13:13:43;;;;;;;2.50;1.97;;;11.80;99.90;;;;;;5029520;28;20971;-64
2022/09/29 13:16:19;;;;;;;2.33;2.13;;;11.70;99.90;;;;;;5019735;28;20944;-64
2022/09/29 13:19:08;;;;;;;1.80;1.70;;;11.70;99.90;;;;;;5004632;28;20429;-64
2022/09/29 13:22:07;;;;;;;2.47;1.97;;;11.60;99.90;;;;;;4977493;28;20431;-64